Time;durP1;ratioP1;P1;durP2;ratioP2;P2;SDS_P1;SDS_P2;PMS_P1;PMS_P2;Temp;Humidity;BMP_temperature;BMP_pressure;BME280_temperature;BME280_humidity;BME280_pressure;Samples;Min_cycle;Max_cycle;Signal;HPM_P1;HPM_P2
2021/06/13 00:00:51;;;;;;;8.18;4.07;;;;;;;13.29;68.96;101869.22;5063257;28;20459;-51
2021/06/13 00:03:17;;;;;;;8.88;4.13;;;;;;;12.99;70.70;101869.09;5064476;28;20032;-47
2021/06/13 00:05:43;;;;;;;8.38;4.03;;;;;;;12.97;71.74;101857.72;5062986;28;20557;-49
2021/06/13 00:08:08;;;;;;;5.97;3.83;;;;;;;13.05;70.98;101856.88;5063437;28;20493;-49
2021/06/13 00:10:34;;;;;;;8.88;4.50;;;;;;;12.77;71.92;101867.25;5062990;28;20044;-49
2021/06/13 00:13:00;;;;;;;8.18;3.75;;;;;;;13.05;70.67;101861.25;5066906;28;20024;-48
2021/06/13 00:15:26;;;;;;;10.38;4.60;;;;;;;12.77;72.35;101863.75;5064534;28;20032;-48
2021/06/13 00:17:53;;;;;;;8.68;5.00;;;;;;;12.48;72.67;101859.22;5063120;27;20164;-48
2021/06/13 00:20:24;;;;;;;7.43;4.60;;;;;;;12.31;73.65;101866.97;5065674;28;20048;-50
2021/06/13 00:22:50;;;;;;;7.38;3.92;;;;;;;12.18;74.59;101867.75;5058626;27;20063;-49
2021/06/13 00:25:16;;;;;;;9.15;4.68;;;;;;;12.40;72.81;101871.41;5065049;28;20036;-48
2021/06/13 00:27:42;;;;;;;6.63;4.35;;;;;;;12.46;73.04;101874.09;5064552;28;20032;-52
2021/06/13 00:30:12;;;;;;;8.93;4.35;;;;;;;12.38;73.35;101867.91;5059977;27;20040;-48
2021/06/13 00:32:39;;;;;;;8.15;4.50;;;;;;;12.23;73.76;101869.53;5064538;28;20041;-49
2021/06/13 00:35:05;;;;;;;7.68;4.55;;;;;;;12.07;75.09;101867.66;5063747;28;20405;-48
2021/06/13 00:37:32;;;;;;;8.63;5.78;;;;;;;12.06;74.65;101873.78;5062412;27;20302;-47
2021/06/13 00:39:58;;;;;;;8.02;4.95;;;;;;;12.18;73.63;101873.84;5064612;28;20483;-48
2021/06/13 00:42:24;;;;;;;6.95;4.45;;;;;;;12.26;73.25;101877.41;5063867;28;20047;-48
2021/06/13 00:44:50;;;;;;;7.60;4.88;;;;;;;12.00;75.16;101879.81;5062760;27;20049;-49
2021/06/13 00:47:15;;;;;;;8.57;4.80;;;;;;;11.98;74.58;101881.56;5063530;28;20032;-47
2021/06/13 00:49:42;;;;;;;10.88;5.43;;;;;;;11.86;74.61;101881.41;5071342;27;20032;-48
2021/06/13 00:52:07;;;;;;;8.20;5.35;;;;;;;11.96;74.92;101883.28;5062164;28;20042;-48
2021/06/13 00:54:34;;;;;;;7.45;4.70;;;;;;;12.02;74.45;101878.09;5078182;27;20033;-48
2021/06/13 00:57:00;;;;;;;10.55;5.78;;;;;;;12.07;74.42;101875.50;5059934;28;20041;-47
2021/06/13 00:59:26;;;;;;;10.93;5.40;;;;;;;11.95;74.81;101878.03;5060793;27;20043;-48
2021/06/13 01:01:52;;;;;;;7.80;5.43;;;;;;;12.19;73.44;101874.75;5060627;27;20036;-48
2021/06/13 01:04:18;;;;;;;10.25;4.95;;;;;;;12.16;73.43;101875.59;5059834;28;20024;-49
2021/06/13 01:07:05;;;;;;;7.70;5.00;;;;;;;11.74;76.37;101872.56;5060740;28;20044;-47
2021/06/13 01:09:36;;;;;;;9.27;5.13;;;;;;;11.69;75.32;101876.00;5060687;27;20048;-49
2021/06/13 01:12:31;;;;;;;10.25;5.40;;;;;;;11.72;76.02;101881.28;5063830;27;20037;-49
2021/06/13 01:14:57;;;;;;;8.35;5.00;;;;;;;11.45;76.45;101874.91;5061395;28;20032;-49
2021/06/13 01:17:41;;;;;;;8.13;4.93;;;;;;;11.75;75.87;101881.31;5063754;28;20977;-48
2021/06/13 01:20:29;;;;;;;7.60;4.88;;;;;;;11.55;75.69;101881.97;5063411;28;20039;-48
2021/06/13 01:23:27;;;;;;;9.75;5.05;;;;;;;11.57;76.00;101885.50;5058587;28;20048;-48
2021/06/13 01:26:51;;;;;;;9.32;5.20;;;;;;;11.37;77.34;101892.25;5058781;27;20133;-47
2021/06/13 01:29:28;;;;;;;9.02;5.32;;;;;;;11.37;77.07;101887.91;5029673;28;20048;-50
2021/06/13 01:31:59;;;;;;;9.27;5.25;;;;;;;11.88;74.46;101892.78;5041919;28;20046;-48
2021/06/13 01:34:33;;;;;;;10.75;5.07;;;;;;;11.78;74.79;101883.06;5051553;28;20044;-48
2021/06/13 01:37:06;;;;;;;7.70;5.00;;;;;;;11.48;76.03;101888.03;5058967;28;20036;-47
2021/06/13 01:39:38;;;;;;;9.10;4.78;;;;;;;11.51;75.72;101887.19;5090547;27;20043;-47
2021/06/13 01:42:09;;;;;;;7.88;4.43;;;;;;;11.41;75.88;101883.59;5062655;28;20063;-47
2021/06/13 01:44:43;;;;;;;7.03;4.65;;;;;;;11.11;77.05;101892.81;5059724;27;20049;-47
2021/06/13 01:47:11;;;;;;;8.52;5.50;;;;;;;11.23;75.99;101898.19;5048694;28;20037;-47
2021/06/13 01:49:41;;;;;;;8.05;5.07;;;;;;;11.20;76.02;101895.56;5028507;27;20035;-51
2021/06/13 01:52:10;;;;;;;8.80;5.03;;;;;;;10.99;77.27;101895.25;5059443;28;20502;-47
2021/06/13 01:54:37;;;;;;;6.68;4.88;;;;;;;11.01;77.42;101888.34;5064258;28;20154;-49
2021/06/13 01:57:05;;;;;;;8.70;5.40;;;;;;;10.81;77.76;101891.53;5062045;27;20088;-47
2021/06/13 01:59:48;;;;;;;7.78;4.60;;;;;;;11.16;75.92;101892.84;5057912;28;20039;-49
2021/06/13 02:02:16;;;;;;;8.50;5.18;;;;;;;11.11;76.53;101887.56;5060220;28;20036;-48
2021/06/13 02:04:45;;;;;;;9.77;5.10;;;;;;;11.30;75.86;101879.94;5060385;27;20445;-47
2021/06/13 02:07:15;;;;;;;9.35;4.55;;;;;;;11.08;77.25;101880.56;5063174;28;20101;-48
2021/06/13 02:09:44;;;;;;;7.25;4.63;;;;;;;10.86;78.11;101887.25;5061944;28;20047;-49
2021/06/13 02:12:10;;;;;;;9.43;5.07;;;;;;;10.66;78.40;101891.31;5057587;28;20036;-48
2021/06/13 02:14:48;;;;;;;8.52;5.15;;;;;;;10.60;78.67;101886.00;5059643;28;20052;-50
2021/06/13 02:17:17;;;;;;;7.55;5.00;;;;;;;10.62;78.18;101884.28;5057479;28;20040;-48
2021/06/13 02:19:53;;;;;;;9.13;5.68;;;;;;;10.84;76.65;101890.69;5055175;28;20041;-47
2021/06/13 02:22:22;;;;;;;11.60;5.47;;;;;;;10.84;77.66;101880.25;5062512;28;20028;-47
2021/06/13 02:24:51;;;;;;;9.50;5.40;;;;;;;10.88;77.57;101879.41;5061989;28;20032;-48
2021/06/13 02:27:23;;;;;;;10.57;5.45;;;;;;;10.92;76.95;101881.22;5058151;28;20028;-47
2021/06/13 02:29:51;;;;;;;8.43;4.95;;;;;;;10.75;77.41;101886.22;5058830;28;20400;-50
2021/06/13 02:32:18;;;;;;;9.30;5.00;;;;;;;10.52;78.83;101883.28;5060494;27;20115;-47
2021/06/13 02:34:47;;;;;;;10.05;5.85;;;;;;;10.41;78.82;101885.72;5060690;28;20504;-48
2021/06/13 02:37:16;;;;;;;9.07;5.22;;;;;;;10.38;79.37;101886.56;5057561;28;20119;-49
2021/06/13 02:39:42;;;;;;;7.93;5.10;;;;;;;10.34;78.73;101894.28;5059075;27;20131;-48
2021/06/13 02:42:17;;;;;;;8.68;4.72;;;;;;;10.06;80.17;101893.84;5064861;28;20043;-47
2021/06/13 02:44:48;;;;;;;8.90;5.28;;;;;;;10.08;79.42;101899.09;5074076;27;20488;-48
2021/06/13 02:47:15;;;;;;;7.68;5.03;;;;;;;10.28;78.34;101899.44;5061764;28;20051;-48
2021/06/13 02:49:42;;;;;;;8.80;5.03;;;;;;;10.43;77.38;101899.72;5059221;27;20043;-49
2021/06/13 02:52:29;;;;;;;9.27;5.13;;;;;;;10.46;77.34;101909.34;5059295;28;20031;-47
2021/06/13 02:54:59;;;;;;;8.40;4.50;;;;;;;10.51;76.96;101908.56;5057195;28;20517;-47
2021/06/13 02:57:41;;;;;;;8.82;5.15;;;;;;;10.38;77.11;101902.25;5083334;27;20076;-47
2021/06/13 03:00:09;;;;;;;9.80;4.85;;;;;;;10.16;78.82;101900.09;5083280;27;20044;-47
2021/06/13 03:02:43;;;;;;;8.30;5.38;;;;;;;10.13;78.38;101898.31;5066970;28;20043;-47
2021/06/13 03:05:10;;;;;;;8.27;4.75;;;;;;;10.07;78.56;101890.38;5059485;28;20044;-47
2021/06/13 03:07:37;;;;;;;9.57;5.00;;;;;;;9.96;79.42;101897.16;5043952;28;20094;-47
2021/06/13 03:10:07;;;;;;;10.68;5.25;;;;;;;9.96;78.84;101902.38;5058285;28;20154;-48
2021/06/13 03:12:34;;;;;;;9.80;5.40;;;;;;;9.92;79.97;101895.34;5043839;28;20547;-47
2021/06/13 03:15:03;;;;;;;8.68;4.88;;;;;;;9.96;79.41;101894.56;5058029;28;20036;-47
2021/06/13 03:17:38;;;;;;;8.57;5.43;;;;;;;9.66;81.07;101896.63;5058217;28;20036;-47
2021/06/13 03:20:08;;;;;;;10.32;5.53;;;;;;;9.59;81.24;101901.69;5059053;27;20055;-47
2021/06/13 03:22:34;;;;;;;10.32;5.47;;;;;;;9.69;80.57;101898.41;5059042;27;20043;-47
2021/06/13 03:25:02;;;;;;;9.15;5.80;;;;;;;9.59;80.84;101899.09;5056542;28;20542;-49
2021/06/13 03:27:30;;;;;;;8.88;5.05;;;;;;;9.42;81.45;101907.47;5062463;28;20341;-47
2021/06/13 03:29:59;;;;;;;7.15;4.75;;;;;;;9.47;81.48;101913.66;5058165;28;20035;-47
2021/06/13 03:32:27;;;;;;;8.82;5.18;;;;;;;9.34;81.64;101919.47;5061111;28;20055;-48
2021/06/13 03:34:54;;;;;;;8.77;5.40;;;;;;;9.54;80.77;101920.75;5062777;28;20044;-48
2021/06/13 03:37:20;;;;;;;7.63;5.05;;;;;;;9.74;79.29;101922.88;5057444;28;20047;-47
2021/06/13 03:39:48;;;;;;;8.27;4.95;;;;;;;9.51;80.82;101925.94;5057261;28;21856;-47
2021/06/13 03:42:15;;;;;;;8.13;5.07;;;;;;;9.42;80.90;101927.47;5058782;28;20071;-47
2021/06/13 03:44:43;;;;;;;8.52;5.00;;;;;;;9.77;78.60;101928.16;5057727;27;20213;-47
2021/06/13 03:47:11;;;;;;;12.27;5.07;;;;;;;9.52;81.06;101932.91;5056164;28;20453;-48
2021/06/13 03:49:37;;;;;;;10.13;5.60;;;;;;;9.15;81.81;101937.38;5058843;27;20579;-47
2021/06/13 03:52:03;;;;;;;11.20;5.68;;;;;;;9.26;81.82;101936.72;5057421;28;20229;-47
2021/06/13 03:54:29;;;;;;;9.07;5.50;;;;;;;9.28;81.59;101938.50;5057620;28;20131;-47
2021/06/13 03:57:06;;;;;;;10.77;6.10;;;;;;;9.05;83.57;101942.34;5056887;28;20043;-46
2021/06/13 03:59:33;;;;;;;9.52;5.10;;;;;;;9.40;81.10;101943.13;5058371;27;20055;-47
2021/06/13 04:02:02;;;;;;;9.25;5.13;;;;;;;9.44;80.80;101951.88;5055314;28;20040;-47
2021/06/13 04:04:36;;;;;;;11.05;5.50;;;;;;;9.50;80.61;101945.03;5056790;27;20032;-47
2021/06/13 04:07:04;;;;;;;10.52;5.72;;;;;;;9.54;81.56;101951.22;5059469;28;20058;-48
2021/06/13 04:09:29;;;;;;;7.75;5.35;;;;;;;9.48;80.54;101957.19;5060018;28;20046;-47
2021/06/13 04:11:56;;;;;;;9.20;5.78;;;;;;;9.56;80.96;101956.47;5058006;28;20036;-48
2021/06/13 04:14:22;;;;;;;8.20;5.70;;;;;;;9.57;80.98;101955.59;5060923;27;20736;-47
2021/06/13 04:16:48;;;;;;;10.23;6.03;;;;;;;9.65;80.38;101957.53;5065665;27;20040;-47
2021/06/13 04:19:16;;;;;;;9.20;5.28;;;;;;;9.71;79.32;101962.00;5072399;28;20090;-49
2021/06/13 04:21:43;;;;;;;10.77;6.57;;;;;;;9.83;79.67;101959.63;5061214;28;20230;-47
2021/06/13 04:24:17;;;;;;;9.60;4.57;;;;;;;9.81;80.49;101963.91;5062565;27;20298;-49
2021/06/13 04:26:44;;;;;;;9.95;5.97;;;;;;;9.85;79.56;101967.47;5063274;28;20611;-48
2021/06/13 04:29:11;;;;;;;9.35;5.53;;;;;;;9.85;80.66;101965.75;5061550;27;20630;-49
2021/06/13 04:31:37;;;;;;;7.63;5.43;;;;;;;9.82;81.16;101975.28;5061936;27;20044;-48
2021/06/13 04:34:03;;;;;;;12.52;5.75;;;;;;;9.68;82.10;101977.59;5061061;28;20660;-51
2021/06/13 04:36:29;;;;;;;11.48;6.03;;;;;;;9.65;82.59;101973.19;5063379;28;20459;-49
2021/06/13 04:38:55;;;;;;;11.65;6.15;;;;;;;9.63;82.87;101982.72;5065682;28;20130;-50
2021/06/13 04:41:21;;;;;;;12.93;6.15;;;;;;;9.68;82.81;101978.47;5062378;27;20358;-48
2021/06/13 04:43:47;;;;;;;10.50;5.40;;;;;;;9.79;82.30;101981.31;5063795;28;20541;-48
2021/06/13 04:46:17;;;;;;;10.70;5.75;;;;;;;9.83;81.65;101984.84;5062561;28;20093;-49
2021/06/13 04:48:43;;;;;;;9.02;5.55;;;;;;;9.95;80.56;101985.06;5061036;27;20109;-48
2021/06/13 04:51:11;;;;;;;10.07;5.82;;;;;;;9.93;81.92;101984.19;5064601;27;20044;-47
2021/06/13 04:53:58;;;;;;;12.07;5.82;;;;;;;9.94;82.51;101987.66;5062789;27;20047;-48
2021/06/13 04:56:41;;;;;;;9.52;5.93;;;;;;;9.93;81.63;101989.41;5059325;27;20048;-49
2021/06/13 04:59:07;;;;;;;10.50;5.80;;;;;;;10.08;81.51;101990.53;5067071;27;20048;-48
2021/06/13 05:01:33;;;;;;;12.68;6.35;;;;;;;10.16;81.72;101983.72;5061606;27;20044;-47
2021/06/13 05:03:59;;;;;;;11.85;6.10;;;;;;;10.20;81.22;101989.06;5062804;28;20267;-49
2021/06/13 05:06:25;;;;;;;10.18;5.97;;;;;;;10.29;81.57;101990.06;5063988;27;20040;-47
2021/06/13 05:08:51;;;;;;;13.70;5.90;;;;;;;10.42;80.07;101996.41;5057368;28;21004;-47
2021/06/13 05:11:17;;;;;;;11.60;5.65;;;;;;;10.50;78.46;101995.69;5060759;27;21105;-49
2021/06/13 05:13:43;;;;;;;10.23;5.65;;;;;;;10.76;76.64;102007.41;5044037;27;20036;-49
2021/06/13 05:16:09;;;;;;;10.93;5.75;;;;;;;10.76;77.45;101991.72;5058413;28;20048;-48
2021/06/13 05:18:35;;;;;;;9.68;5.13;;;;;;;10.76;76.98;102004.78;5061842;27;20442;-48
2021/06/13 05:21:02;;;;;;;11.13;5.95;;;;;;;10.76;78.32;102003.09;5061861;28;20436;-49
2021/06/13 05:23:27;;;;;;;12.98;5.55;;;;;;;10.92;76.08;102008.56;5055519;28;20467;-48
2021/06/13 05:25:56;;;;;;;12.18;5.13;;;;;;;10.97;75.94;102009.50;5064343;27;20130;-50
2021/06/13 05:28:23;;;;;;;12.23;5.53;;;;;;;11.12;75.92;102017.59;5066317;27;20082;-49
2021/06/13 05:30:50;;;;;;;9.20;5.97;;;;;;;11.13;76.92;102013.22;5063990;28;20217;-49
2021/06/13 05:33:16;;;;;;;12.55;6.10;;;;;;;11.10;77.45;102018.41;5061787;27;20307;-48
2021/06/13 05:35:43;;;;;;;10.38;5.50;;;;;;;11.18;75.09;102020.28;5061071;28;20087;-48
2021/06/13 05:38:09;;;;;;;12.10;5.45;;;;;;;11.32;74.25;102025.72;5058202;28;20123;-48
2021/06/13 05:40:36;;;;;;;8.98;5.28;;;;;;;11.41;74.67;102031.06;5060214;28;20039;-48
2021/06/13 05:43:03;;;;;;;11.55;5.40;;;;;;;11.45;74.77;102036.34;5078903;27;20032;-48
2021/06/13 05:45:31;;;;;;;10.48;5.10;;;;;;;11.37;74.28;102034.50;5063777;28;20135;-48
2021/06/13 05:47:58;;;;;;;10.52;5.20;;;;;;;11.48;75.74;102032.03;5061338;27;20032;-48
2021/06/13 05:50:25;;;;;;;7.88;4.50;;;;;;;11.52;74.89;102028.59;5060143;27;20051;-48
2021/06/13 05:52:52;;;;;;;10.35;4.57;;;;;;;11.52;74.77;102036.47;5061274;27;20052;-48
2021/06/13 05:55:19;;;;;;;10.15;5.00;;;;;;;11.58;73.68;102041.78;5058272;28;20067;-48
2021/06/13 05:57:46;;;;;;;10.68;4.70;;;;;;;11.66;72.54;102038.38;5059762;28;20406;-48
2021/06/13 06:00:15;;;;;;;10.93;4.85;;;;;;;11.72;73.39;102038.47;5061814;28;20046;-48
2021/06/13 06:02:42;;;;;;;8.80;4.55;;;;;;;11.78;72.76;102042.88;5065341;28;20510;-49
2021/06/13 06:05:11;;;;;;;8.52;4.10;;;;;;;11.83;71.30;102044.69;5055103;28;20496;-48
2021/06/13 06:07:36;;;;;;;9.80;4.60;;;;;;;11.87;71.54;102046.50;5061608;28;20116;-49
2021/06/13 06:10:07;;;;;;;8.05;4.88;;;;;;;11.95;69.03;102046.63;5045547;28;20024;-49
2021/06/13 06:12:33;;;;;;;14.18;4.80;;;;;;;12.04;68.93;102058.97;5059042;28;20487;-48
2021/06/13 06:15:00;;;;;;;10.38;4.60;;;;;;;12.06;70.51;102062.50;5061062;27;20036;-48
2021/06/13 06:17:25;;;;;;;9.60;4.65;;;;;;;12.11;69.19;102063.41;5056383;28;20045;-50
2021/06/13 06:19:51;;;;;;;9.68;4.93;;;;;;;12.81;66.65;102059.72;5062430;28;20047;-47
2021/06/13 06:22:17;;;;;;;10.30;4.40;;;;;;;12.53;66.02;102069.97;5057240;28;20072;-49
2021/06/13 06:24:43;;;;;;;9.38;4.53;;;;;;;12.41;66.34;102062.84;5058607;28;20044;-48
2021/06/13 06:27:08;;;;;;;9.52;4.28;;;;;;;12.38;66.80;102064.59;5059877;28;20364;-49
2021/06/13 06:29:34;;;;;;;7.60;4.03;;;;;;;12.52;66.42;102056.84;5062429;27;20393;-47
2021/06/13 06:32:00;;;;;;;7.68;3.92;;;;;;;12.49;66.23;102064.66;5058918;27;20036;-50
2021/06/13 06:34:26;;;;;;;8.45;4.00;;;;;;;12.46;67.50;102070.78;5061089;27;20048;-48
2021/06/13 06:36:52;;;;;;;10.43;4.03;;;;;;;12.48;68.18;102065.56;5062798;28;20060;-48
2021/06/13 06:39:19;;;;;;;9.25;4.28;;;;;;;12.51;67.12;102066.44;5062989;27;20123;-48
2021/06/13 06:41:45;;;;;;;9.35;3.92;;;;;;;12.57;66.01;102071.75;5061602;27;20067;-49
2021/06/13 06:44:10;;;;;;;9.80;4.10;;;;;;;12.69;64.30;102077.97;5092999;27;20032;-48
2021/06/13 06:46:37;;;;;;;10.27;3.90;;;;;;;12.76;64.80;102071.91;5054979;28;20565;-47
2021/06/13 06:49:04;;;;;;;10.02;4.00;;;;;;;12.92;64.49;102076.44;5059945;28;20411;-52
2021/06/13 06:51:30;;;;;;;8.35;4.15;;;;;;;13.04;65.52;102080.91;5061994;27;20044;-49
2021/06/13 06:53:57;;;;;;;9.73;3.95;;;;;;;13.52;61.79;102080.38;5042205;28;20413;-48
2021/06/13 06:56:24;;;;;;;7.50;3.83;;;;;;;13.47;61.20;102090.84;5054581;27;20044;-48
2021/06/13 06:58:50;;;;;;;8.65;3.38;;;;;;;13.18;64.25;102085.38;5058320;28;20195;-49
2021/06/13 07:01:16;;;;;;;8.63;3.92;;;;;;;13.25;62.67;102085.44;5058983;28;20531;-52
2021/06/13 07:03:42;;;;;;;11.43;3.90;;;;;;;13.31;61.47;102086.34;5057636;28;20124;-48
2021/06/13 07:06:07;;;;;;;11.48;4.20;;;;;;;13.23;62.34;102092.41;5061488;28;20036;-49
2021/06/13 07:08:33;;;;;;;8.25;3.95;;;;;;;13.23;62.76;102089.78;5059158;27;20438;-49
2021/06/13 07:10:59;;;;;;;8.95;3.80;;;;;;;13.25;62.49;102102.91;5056441;28;20133;-52
2021/06/13 07:13:24;;;;;;;7.78;3.70;;;;;;;13.97;59.26;102102.50;5054377;28;20048;-48
2021/06/13 07:15:50;;;;;;;7.05;3.50;;;;;;;14.21;58.93;102099.06;5056594;28;20798;-50
2021/06/13 07:18:16;;;;;;;12.48;3.97;;;;;;;13.80;59.91;102097.16;5060180;27;20126;-48
2021/06/13 07:20:42;;;;;;;7.80;3.63;;;;;;;13.61;60.44;102091.81;5059350;27;20053;-48
2021/06/13 07:23:08;;;;;;;8.02;3.50;;;;;;;13.68;60.77;102097.97;5056907;28;20047;-48
2021/06/13 07:25:35;;;;;;;8.38;3.60;;;;;;;13.67;61.45;102105.88;5057409;27;20033;-49
2021/06/13 07:28:00;;;;;;;9.57;3.83;;;;;;;13.76;60.44;102100.63;5042340;28;20031;-48
2021/06/13 07:30:26;;;;;;;8.00;3.13;;;;;;;13.68;60.12;102097.97;5057568;27;20500;-49
2021/06/13 07:32:52;;;;;;;7.55;3.70;;;;;;;13.63;60.04;102103.19;5063287;27;20036;-51
2021/06/13 07:35:19;;;;;;;7.65;3.78;;;;;;;13.67;59.58;102103.22;5063257;27;20032;-50
2021/06/13 07:37:45;;;;;;;8.50;3.72;;;;;;;13.69;61.11;102106.72;5057462;28;20058;-50
2021/06/13 07:40:13;;;;;;;7.28;3.55;;;;;;;13.71;60.00;102113.75;5058694;28;20033;-48
2021/06/13 07:42:39;;;;;;;11.32;3.80;;;;;;;13.70;59.51;102112.00;5057600;27;20040;-49
2021/06/13 07:45:08;;;;;;;8.85;3.53;;;;;;;13.79;59.28;102112.06;5061194;28;20033;-50
2021/06/13 07:47:34;;;;;;;9.95;3.60;;;;;;;13.79;59.00;102111.19;5058804;28;20032;-48
2021/06/13 07:49:59;;;;;;;7.57;3.58;;;;;;;13.81;58.78;102119.94;5056254;28;20029;-48
2021/06/13 07:52:27;;;;;;;6.88;3.83;;;;;;;13.76;58.91;102119.03;5057790;28;20043;-48
2021/06/13 07:54:53;;;;;;;9.13;3.42;;;;;;;13.88;58.38;102115.59;5062738;28;20387;-49
2021/06/13 07:57:18;;;;;;;7.85;3.38;;;;;;;13.87;58.27;102122.59;5057239;28;20063;-50
2021/06/13 07:59:44;;;;;;;8.15;4.03;;;;;;;14.73;57.84;102110.59;5068249;27;20373;-49
2021/06/13 08:02:11;;;;;;;9.27;3.50;;;;;;;14.33;56.21;102118.38;5062273;27;20032;-48
2021/06/13 08:04:39;;;;;;;7.75;4.00;;;;;;;14.51;57.83;102125.44;5061863;28;20124;-50
2021/06/13 08:07:05;;;;;;;7.03;3.60;;;;;;;15.14;54.92;102120.28;5067733;28;20032;-49
2021/06/13 08:09:31;;;;;;;6.28;3.20;;;;;;;14.93;54.95;102124.66;5066159;28;20515;-48
2021/06/13 08:11:57;;;;;;;7.18;3.50;;;;;;;14.92;55.58;102122.03;5059096;28;20032;-49
2021/06/13 08:14:22;;;;;;;8.50;3.40;;;;;;;14.66;56.38;102122.00;5062721;27;20385;-49
2021/06/13 08:16:48;;;;;;;7.60;3.40;;;;;;;14.87;54.40;102129.03;5060727;28;20039;-50
2021/06/13 08:19:14;;;;;;;8.00;3.50;;;;;;;14.97;54.59;102128.19;5062740;28;20073;-49
2021/06/13 08:21:40;;;;;;;8.23;3.35;;;;;;;14.79;53.58;102127.28;5063629;28;20123;-49
2021/06/13 08:24:06;;;;;;;7.90;3.28;;;;;;;14.86;54.02;102124.69;5060528;27;20036;-49
2021/06/13 08:26:32;;;;;;;7.65;3.80;;;;;;;14.97;55.91;102130.81;5062158;27;20043;-48
2021/06/13 08:29:02;;;;;;;7.43;3.40;;;;;;;15.62;52.42;102134.25;5063724;28;20519;-49
2021/06/13 08:31:30;;;;;;;8.38;3.28;;;;;;;15.66;51.89;102127.22;5060521;27;20037;-48
2021/06/13 08:33:57;;;;;;;7.75;3.15;;;;;;;15.39;52.06;102114.97;5065398;28;20032;-48
2021/06/13 08:36:24;;;;;;;7.00;2.88;;;;;;;15.22;54.11;102118.50;5058814;28;20032;-49
2021/06/13 08:38:52;;;;;;;7.97;3.03;;;;;;;15.40;52.58;102114.97;5058056;28;20053;-48
2021/06/13 08:41:19;;;;;;;9.65;3.45;;;;;;;15.81;51.53;102121.94;5066634;28;20600;-49
2021/06/13 08:43:49;;;;;;;8.68;3.30;;;;;;;15.65;52.19;102123.69;5067466;27;20123;-48
2021/06/13 08:46:15;;;;;;;7.43;3.30;;;;;;;15.52;52.00;102121.09;5061289;28;20387;-48
2021/06/13 08:48:44;;;;;;;7.03;3.22;;;;;;;15.40;52.63;102127.28;5060253;28;20439;-49
2021/06/13 08:51:10;;;;;;;6.40;3.40;;;;;;;15.65;52.81;102121.06;5058228;28;20033;-49
2021/06/13 08:53:36;;;;;;;8.55;3.40;;;;;;;15.89;49.68;102116.63;5057366;27;20040;-48
2021/06/13 08:56:02;;;;;;;6.50;3.33;;;;;;;15.60;52.56;102114.94;5055691;27;20109;-48
2021/06/13 08:58:28;;;;;;;8.55;3.33;;;;;;;15.89;50.21;102119.25;5057046;27;20040;-48
2021/06/13 09:00:54;;;;;;;7.72;3.40;;;;;;;15.74;50.97;102111.38;5057577;28;20393;-49
2021/06/13 09:03:20;;;;;;;7.15;3.28;;;;;;;15.86;54.46;102116.66;5055884;28;20040;-48
2021/06/13 09:05:46;;;;;;;6.50;3.28;;;;;;;15.91;51.23;102116.63;5054037;28;20068;-51
2021/06/13 09:08:13;;;;;;;7.95;3.47;;;;;;;15.73;50.09;102114.88;5053660;28;20078;-50
2021/06/13 09:10:45;;;;;;;6.03;3.10;;;;;;;15.59;51.27;102113.19;5053021;28;20074;-48
2021/06/13 09:13:15;;;;;;;7.30;3.42;;;;;;;15.66;51.93;102112.28;5052119;28;20444;-48
2021/06/13 09:15:50;;;;;;;7.85;3.63;;;;;;;15.85;48.17;102117.53;5054782;28;20132;-48
2021/06/13 09:18:35;;;;;;;6.63;3.03;;;;;;;15.61;49.39;102115.81;5065657;28;20035;-49
2021/06/13 09:21:03;;;;;;;5.65;3.10;;;;;;;15.58;51.85;102108.78;5052103;28;20078;-48
2021/06/13 09:23:30;;;;;;;7.80;3.72;;;;;;;15.48;51.36;102104.44;5056786;28;20063;-49
2021/06/13 09:26:23;;;;;;;5.68;2.92;;;;;;;16.79;45.97;102105.56;5055652;28;20094;-49
2021/06/13 09:28:51;;;;;;;6.90;2.80;;;;;;;16.29;47.18;102105.88;5051726;28;20488;-50
2021/06/13 09:31:20;;;;;;;8.60;2.95;;;;;;;15.93;49.51;102107.81;5072618;27;20283;-50
2021/06/13 09:33:50;;;;;;;8.75;3.55;;;;;;;15.89;49.34;102108.72;5054496;28;20036;-49
2021/06/13 09:36:18;;;;;;;8.18;3.78;;;;;;;15.84;51.16;102115.78;5056675;28;20560;-48
2021/06/13 09:38:46;;;;;;;6.53;3.15;;;;;;;15.79;50.75;102104.34;5056377;28;20051;-49
2021/06/13 09:41:15;;;;;;;4.55;2.83;;;;;;;16.07;49.74;102113.03;5053361;27;20040;-50
2021/06/13 09:43:54;;;;;;;8.68;3.03;;;;;;;16.14;50.30;102113.88;5053863;28;20093;-49
2021/06/13 09:46:32;;;;;;;6.00;3.10;;;;;;;16.92;46.40;102101.09;5059509;28;20044;-50
2021/06/13 09:49:16;;;;;;;9.33;3.40;;;;;;;17.14;48.23;102102.66;5052935;28;20252;-48
2021/06/13 09:51:53;;;;;;;8.35;3.38;;;;;;;17.35;48.60;102111.28;5054644;27;20403;-47
2021/06/13 09:54:26;;;;;;;8.65;3.50;;;;;;;17.06;47.69;102108.91;5055994;27;20053;-49
2021/06/13 09:56:56;;;;;;;6.50;3.00;;;;;;;17.26;47.02;102106.94;5059096;27;20100;-49
2021/06/13 09:59:29;;;;;;;7.65;2.90;;;;;;;17.16;46.40;102095.59;5053547;28;20336;-49
2021/06/13 10:01:59;;;;;;;8.88;3.50;;;;;;;17.30;46.34;102100.75;5057820;28;20640;-50
2021/06/13 10:04:26;;;;;;;7.03;3.00;;;;;;;17.19;46.94;102095.56;5051459;27;20062;-48
2021/06/13 10:06:56;;;;;;;9.63;3.67;;;;;;;17.17;45.04;102092.06;5041953;28;20031;-49
2021/06/13 10:09:34;;;;;;;6.93;3.28;;;;;;;17.14;47.03;102101.78;5053450;28;20105;-50
2021/06/13 10:12:05;;;;;;;6.90;3.22;;;;;;;17.19;45.89;102099.97;5070914;27;20050;-51
2021/06/13 10:14:31;;;;;;;8.00;3.50;;;;;;;17.53;47.35;102099.66;5056685;28;20122;-50
2021/06/13 10:16:57;;;;;;;6.90;3.55;;;;;;;18.23;44.25;102098.81;5043876;28;20297;-54
2021/06/13 10:19:27;;;;;;;7.10;3.33;;;;;;;17.80;44.71;102102.84;5055989;28;20037;-50
2021/06/13 10:21:55;;;;;;;7.43;3.20;;;;;;;17.65;46.22;102101.25;5057668;28;20127;-49
2021/06/13 10:24:23;;;;;;;6.35;3.35;;;;;;;17.95;45.63;102107.97;5058068;28;20047;-51
2021/06/13 10:26:51;;;;;;;7.38;3.40;;;;;;;17.73;46.05;102102.03;5027570;28;20230;-49
2021/06/13 10:29:18;;;;;;;7.25;3.40;;;;;;;17.74;46.23;102102.94;5057346;28;20029;-48
2021/06/13 10:33:11;;;;;;;7.88;3.35;;;;;;;17.81;46.54;102101.97;5104667;27;20257;-82
2021/06/13 10:35:38;;;;;;;5.68;3.33;;;;;;;17.67;47.62;102103.00;5060473;28;20434;-82
2021/06/13 10:38:04;;;;;;;6.40;3.72;;;;;;;17.96;45.90;102099.16;5051783;28;20036;-83
2021/06/13 10:40:31;;;;;;;12.10;4.18;;;;;;;18.47;42.68;102111.72;5067622;28;20484;-82
2021/06/13 10:42:59;;;;;;;7.35;3.72;;;;;;;18.30;45.68;102092.53;5038889;28;20071;-83
2021/06/13 10:45:30;;;;;;;;;;;;;;;18.66;43.33;102092.88;5058261;28;20695;-83
2021/06/13 10:48:35;;;;;;;9.30;3.92;;;;;;;18.12;45.53;102096.31;5070296;28;19969;-84
2021/06/13 10:51:00;;;;;;;8.98;3.83;;;;;;;18.21;43.02;102096.19;5066707;28;20035;-83
2021/06/13 10:53:32;;;;;;;8.23;3.20;;;;;;;18.12;45.42;102091.88;5052635;28;20035;-84
2021/06/13 10:56:02;;;;;;;8.05;3.55;;;;;;;18.19;45.50;102111.19;5066012;28;20056;-84
2021/06/13 10:58:50;;;;;;;7.70;3.65;;;;;;;18.22;44.67;102103.25;5080995;28;20040;-83
2021/06/13 11:01:27;;;;;;;7.68;3.88;;;;;;;18.22;45.78;102092.66;5052649;28;20047;-81
2021/06/13 11:03:57;;;;;;;7.28;3.45;;;;;;;18.69;43.49;102100.75;5072317;28;20040;-81
2021/06/13 11:06:35;;;;;;;6.75;3.67;;;;;;;18.72;43.23;102091.00;5052123;28;20078;-83
2021/06/13 11:09:06;;;;;;;8.90;3.72;;;;;;;19.27;42.43;102088.31;5035479;28;20139;-81
2021/06/13 11:11:39;;;;;;;6.85;3.55;;;;;;;19.17;44.24;102094.69;5065910;28;20388;-81
2021/06/13 11:14:28;;;;;;;6.85;3.83;;;;;;;18.83;44.07;102088.19;5064811;28;20065;-84
2021/06/13 11:16:58;;;;;;;6.65;3.35;;;;;;;18.80;40.48;102082.94;5072426;28;20140;-80
2021/06/13 11:19:27;;;;;;;7.38;3.25;;;;;;;19.05;43.40;102091.38;5036287;28;20050;-82
2021/06/13 11:22:18;;;;;;;8.25;3.38;;;;;;;18.85;40.43;102085.50;5040684;28;20123;-81
2021/06/13 11:24:48;;;;;;;8.25;3.78;;;;;;;18.94;41.83;102077.44;5070448;28;20120;-82
2021/06/13 11:27:18;;;;;;;7.10;3.80;;;;;;;18.85;39.48;102065.19;5055856;28;20036;-83
2021/06/13 11:29:50;;;;;;;7.47;3.60;;;;;;;18.99;43.81;102064.97;5049324;28;20065;-81
2021/06/13 11:32:16;;;;;;;6.35;3.13;;;;;;;19.30;40.13;102067.06;5071732;28;20050;-82
2021/06/13 11:34:49;;;;;;;6.82;3.60;;;;;;;19.36;41.42;102074.03;5047788;28;20915;-82